Météo Nord-Pas-de-Calais   La météo au plus près de chez vous

Station météorologique

Observations météo à Cilaos (97424)

97424410 1197 m Dernier relevé à 13:30
19.8°C
Humidité 64 % Vent 7.9 km/h

Journée consultée

Samedi 5 Septembre 2026

Synthèse de la journée

Périodes de référence en UTC

Température maximale

22.8°C

à 09:54

06h 06h

Température minimale

10.3°C

à 04:54

18h 18h

Rafale maximale

21 km/h

à 11:12

00h 00h

Précipitations

0 mm

Cumul quotidien

06h 06h

Ensoleillement

5h 1 mins

Durée quotidienne

00h 00h

Graphiques de la journée

Heure locale Réduire

Données détaillées

Relevés météo

Pas de 6 minutes Afficher les relevés infra-horaires
Relevés météo détaillés à Cilaos pour le Samedi 5 Septembre 2026
Heure Température °C Point de rosée °C Humidité % Vent moyen (raf.), km/h Précipitations mm Ensoleillement min Rayonnement global W/m²
13:30 19.8 °C 13.7 °C 68 % 8 km/h (18 km/h) 0 mm0 mm 0 min 104.9 W/m²
13:24 19.7 °C 13.8 °C 69 % 9 km/h (18 km/h) 0 mm0 mm 0 min 68.8 W/m²
13:18 20 °C 13.7 °C 67 % 8 km/h (17 km/h) 0 mm0 mm 0 min 69.6 W/m²
13:12 20.1 °C 13.5 °C 66 % 8 km/h (16 km/h) 0 mm0 mm 0 min 75.2 W/m²
13:06 20.2 °C 13.6 °C 66 % 8 km/h (16 km/h) 0 mm0 mm 1 min 106.6 W/m²
13:00 20.2 °C 13.6 °C 66 % 8 km/h (16 km/h) 0 mm0 mm 0 min 70.5 W/m²
12:54 20.4 °C 13.6 °C 65 % 8 km/h (16 km/h) 0 mm0 mm 0 min 81.2 W/m²
12:48 20.6 °C 13.5 °C 64 % 8 km/h (18 km/h) 0 mm0 mm 0 min 83.6 W/m²
12:42 20.7 °C 13.6 °C 64 % 8 km/h (18 km/h) 0 mm0 mm 0 min 103.8 W/m²
12:36 20.7 °C 14.1 °C 66 % 7 km/h (14 km/h) 0 mm0 mm 0 min 96.4 W/m²
12:30 20.9 °C 13.8 °C 64 % 8 km/h (15 km/h) 0 mm0 mm 0 min 97.4 W/m²
12:24 21 °C 13.7 °C 63 % 9 km/h (15 km/h) 0 mm0 mm 1 min 164.2 W/m²
12:18 21.2 °C 13.9 °C 63 % 9 km/h (19 km/h) 0 mm0 mm 0 min 84.1 W/m²
12:12 21.4 °C 13.8 °C 62 % 8 km/h (18 km/h) 0 mm0 mm 4 min 212.2 W/m²
12:06 21.6 °C 13.8 °C 61 % 7 km/h (19 km/h) 0 mm0 mm 5 min 253.6 W/m²
12:00 21.2 °C 13.9 °C 63 % 7 km/h (19 km/h) 0 mm0 mm 4 min 242.3 W/m²
11:54 21.1 °C 13.8 °C 63 % 9 km/h (17 km/h) 0 mm0 mm 3 min 212.6 W/m²
11:48 21.2 °C 13.9 °C 63 % 10 km/h (17 km/h) 0 mm0 mm 3 min 223.8 W/m²
11:42 21.3 °C 13.7 °C 62 % 9 km/h (19 km/h) 0 mm0 mm 1 min 149.8 W/m²
11:36 21.7 °C 13.8 °C 61 % 10 km/h (19 km/h) 0 mm0 mm 0 min 107.4 W/m²
11:30 22.3 °C 14.4 °C 61 % 8 km/h (19 km/h) 0 mm0 mm 6 min 342 W/m²
11:24 21.9 °C 13.8 °C 60 % 8 km/h (18 km/h) 0 mm0 mm 6 min 320.1 W/m²
11:18 21.9 °C 13.3 °C 58 % 10 km/h (21 km/h) 0 mm0 mm 5 min 318.8 W/m²
11:12 22.2 °C 13.8 °C 59 % 9 km/h (21 km/h) 0 mm0 mm 3 min 217.5 W/m²
11:06 22.4 °C 13.5 °C 57 % 8 km/h (17 km/h) 0 mm0 mm 6 min 347 W/m²
11:00 22.4 °C 14 °C 59 % 8 km/h (14 km/h) 0 mm0 mm 6 min 334.6 W/m²
10:54 22.1 °C 13.4 °C 58 % 8 km/h (16 km/h) 0 mm0 mm 5 min 343.9 W/m²
10:48 21.9 °C 13.3 °C 58 % 7 km/h (16 km/h) 0 mm0 mm 3 min 212.7 W/m²
10:42 21.7 °C 13.6 °C 60 % 8 km/h (18 km/h) 0 mm0 mm 6 min 318.2 W/m²
10:36 21.8 °C 13.4 °C 59 % 8 km/h (17 km/h) 0 mm0 mm 0 min 130.9 W/m²
10:30 22.2 °C 13.3 °C 57 % 8 km/h (18 km/h) 0 mm0 mm 3 min 266.7 W/m²
10:24 22.5 °C 13.3 °C 56 % 9 km/h (19 km/h) 0 mm0 mm 3 min 238.2 W/m²
10:18 22.7 °C 13.2 °C 55 % 9 km/h (19 km/h) 0 mm0 mm 4 min 278 W/m²
10:12 22.8 °C 13 °C 54 % 10 km/h (17 km/h) 0 mm0 mm 6 min 354.5 W/m²
10:06 22.7 °C 13.7 °C 57 % 9 km/h (19 km/h) 0 mm0 mm 6 min 370.5 W/m²
10:00 22.6 °C 12.8 °C 54 % 10 km/h (19 km/h) 0 mm0 mm 6 min 352.9 W/m²
09:54 22.8 °C 13 °C 54 % 9 km/h (18 km/h) 0 mm0 mm 6 min 356.3 W/m²
09:48 22.5 °C 12.7 °C 54 % 9 km/h (18 km/h) 0 mm0 mm 6 min 349.4 W/m²
09:42 22.2 °C 12.4 °C 54 % 8 km/h (19 km/h) 0 mm0 mm 6 min 346 W/m²
09:36 22.2 °C 12.4 °C 54 % 8 km/h (19 km/h) 0 mm0 mm 6 min 329.7 W/m²
09:30 22.4 °C 12.1 °C 52 % 9 km/h (17 km/h) 0 mm0 mm 6 min 333.4 W/m²
09:24 22.3 °C 12 °C 52 % 8 km/h (17 km/h) 0 mm0 mm 6 min 336.4 W/m²
09:18 22.1 °C 12.4 °C 54 % 7 km/h (16 km/h) 0 mm0 mm 6 min 331 W/m²
09:12 22.4 °C 12.3 °C 53 % 6 km/h (16 km/h) 0 mm0 mm 6 min 327.2 W/m²
09:06 22.4 °C 12.6 °C 54 % 6 km/h (15 km/h) 0 mm0 mm 6 min 322.9 W/m²
09:00 22 °C 12 °C 53 % 6 km/h (15 km/h) 0 mm0 mm 6 min 319.7 W/m²
08:54 21.9 °C 11.9 °C 53 % 8 km/h (15 km/h) 0 mm0 mm 6 min 318.8 W/m²
08:48 21.9 °C 11.9 °C 53 % 8 km/h (16 km/h) 0 mm0 mm 6 min 311.4 W/m²
08:42 21.8 °C 11.2 °C 51 % 9 km/h (16 km/h) 0 mm0 mm 6 min 306.7 W/m²
08:36 21.9 °C 11.3 °C 51 % 8 km/h (16 km/h) 0 mm0 mm 6 min 302.2 W/m²
08:30 21.9 °C 11.3 °C 51 % 6 km/h (13 km/h) 0 mm0 mm 6 min 297.7 W/m²
08:24 21.7 °C 10.5 °C 49 % 5 km/h (13 km/h) 0 mm0 mm 6 min 293 W/m²
08:18 21.8 °C 10.3 °C 48 % 6 km/h (13 km/h) 0 mm0 mm 6 min 288.6 W/m²
08:12 21.9 °C 10.1 °C 47 % 8 km/h (17 km/h) 0 mm0 mm 6 min 283.3 W/m²
08:06 22 °C 9.8 °C 46 % 8 km/h (14 km/h) 0 mm0 mm 6 min 278.1 W/m²
08:00 22.3 °C 10.1 °C 46 % 6 km/h (14 km/h) 0 mm0 mm 6 min 272.1 W/m²
07:54 22.1 °C 9.9 °C 46 % 5 km/h (12 km/h) 0 mm0 mm 6 min 266.8 W/m²
07:48 21.9 °C 9.8 °C 46 % 4 km/h (12 km/h) 0 mm0 mm 6 min 261.1 W/m²
07:42 21.9 °C 9.8 °C 46 % 3 km/h (9 km/h) 0 mm0 mm 6 min 254.7 W/m²
07:36 21.8 °C 9.7 °C 46 % 3 km/h (8 km/h) 0 mm0 mm 6 min 247.9 W/m²
07:30 21.6 °C 9.8 °C 47 % 4 km/h (12 km/h) 0 mm0 mm 6 min 240.9 W/m²
07:24 21.6 °C 9.5 °C 46 % 2 km/h (6 km/h) 0 mm0 mm 6 min 233.9 W/m²
07:18 21.2 °C 9.4 °C 47 % 3 km/h (8 km/h) 0 mm0 mm 6 min 227 W/m²
07:12 20.9 °C 9.5 °C 48 % 4 km/h (8 km/h) 0 mm0 mm 6 min 219.8 W/m²
07:06 20.6 °C 9.5 °C 49 % 4 km/h (10 km/h) 0 mm0 mm 6 min 212.2 W/m²
07:00 20.4 °C 9 °C 48 % 3 km/h (8 km/h) 0 mm0 mm 6 min 204.7 W/m²
06:54 20.4 °C 9.6 °C 50 % 3 km/h (6 km/h) 0 mm0 mm 6 min 197 W/m²
06:48 20.4 °C 9.6 °C 50 % 3 km/h (6 km/h) 0 mm0 mm 6 min 189.3 W/m²
06:42 20.5 °C 10 °C 51 % 3 km/h (7 km/h) 0 mm0 mm 6 min 181.3 W/m²
06:36 19.8 °C 9.7 °C 52 % 4 km/h (8 km/h) 0 mm0 mm 6 min 173.1 W/m²
06:30 19.3 °C 10 °C 55 % 4 km/h (8 km/h) 0 mm0 mm 1 min 69.6 W/m²
06:24 18.9 °C 9.4 °C 54 % 3 km/h (8 km/h) 0 mm0 mm 0 min 19.7 W/m²
06:18 18.3 °C 9.6 °C 57 % 2 km/h (8 km/h) 0 mm0 mm 0 min 18.7 W/m²
06:12 17.3 °C 9.5 °C 60 % 2 km/h (8 km/h) 0 mm0 mm 0 min 18.4 W/m²
06:06 16 °C 9.4 °C 65 % 2 km/h (5 km/h) 0 mm0 mm 0 min 18.1 W/m²
06:00 14 °C 9.4 °C 74 % 3 km/h (6 km/h) 0 mm0 mm 0 min 17.7 W/m²
05:54 12.7 °C 9 °C 78 % 3 km/h (6 km/h) 0 mm0 mm 0 min 17 W/m²
05:48 11.6 °C 8.4 °C 81 % 3 km/h (6 km/h) 0 mm0 mm 0 min 16.2 W/m²
05:42 10.9 °C 8.5 °C 85 % 0 km/h (4 km/h) 0 mm0 mm 0 min 15.2 W/m²
05:36 10.5 °C 8.1 °C 85 % 0 km/h (3 km/h) 0 mm0 mm 0 min 7.4 W/m²
05:30 10.4 °C 8 °C 85 % 0 km/h (3 km/h) 0 mm0 mm 0 min 6.3 W/m²
05:24 10.4 °C 8 °C 85 % 0 km/h (4 km/h) 0 mm0 mm 0 min 5.9 W/m²
05:18 10.3 °C 8.1 °C 86 % 0 km/h (3 km/h) 0 mm0 mm 0 min 5.5 W/m²
05:12 10.3 °C 7.9 °C 85 % 0 km/h (4 km/h) 0 mm0 mm 0 min 5 W/m²
05:06 10.3 °C 7.9 °C 85 % 0 km/h (4 km/h) 0 mm0 mm 0 min 4.4 W/m²
05:00 10.3 °C 8.1 °C 86 % 0 km/h (4 km/h) 0 mm0 mm 0 min 4 W/m²
04:54 10.3 °C 8.2 °C 87 % 0 km/h (3 km/h) 0 mm0 mm 0 min 4.2 W/m²
04:48 10.4 °C 8.3 °C 87 % 0 km/h (4 km/h) 0 mm0 mm 0 min 2 W/m²
04:42 10.4 °C 8.3 °C 87 % 0 km/h (4 km/h) 0 mm0 mm 0 min 0 W/m²
04:36 10.4 °C 8.2 °C 86 % 0 km/h (3 km/h) 0 mm0 mm 0 min 0 W/m²
04:30 10.5 °C 8.3 °C 86 % 0 km/h (3 km/h) 0 mm0 mm 0 min 0 W/m²
04:24 10.6 °C 8.4 °C 86 % 0 km/h (3 km/h) 0 mm0 mm 0 min 0 W/m²
04:18 10.7 °C 8.5 °C 86 % 0 km/h (3 km/h) 0 mm0 mm 0 min 0 W/m²
04:12 10.7 °C 8.5 °C 86 % 0 km/h (4 km/h) 0 mm0 mm 0 min 0 W/m²
04:06 10.7 °C 8.3 °C 85 % 2 km/h (5 km/h) 0 mm0 mm 0 min 0 W/m²
04:00 10.8 °C 8.2 °C 84 % 0 km/h (5 km/h) 0 mm0 mm 0 min 0 W/m²
03:54 10.8 °C 8.2 °C 84 % 0 km/h (3 km/h) 0 mm0 mm 0 min 0 W/m²
03:48 10.8 °C 8.2 °C 84 % 0 km/h (3 km/h) 0 mm0 mm 0 min 0 W/m²
03:42 10.8 °C 8.2 °C 84 % 0 km/h (5 km/h) 0 mm0 mm 0 min 0 W/m²
03:36 10.9 °C 8.5 °C 85 % 0 km/h (5 km/h) 0 mm0 mm 0 min 0 W/m²
03:30 10.9 °C 8.3 °C 84 % 0 km/h (4 km/h) 0 mm0 mm 0 min 0 W/m²
03:24 11.1 °C 8.7 °C 85 % 0 km/h (6 km/h) 0 mm0 mm 0 min 0 W/m²
03:18 11.2 °C 8.8 °C 85 % 2 km/h (6 km/h) 0 mm0 mm 0 min 0 W/m²
03:12 11.2 °C 8.8 °C 85 % 2 km/h (5 km/h) 0 mm0 mm 0 min 0 W/m²
03:06 11.2 °C 8.8 °C 85 % 0 km/h (4 km/h) 0 mm0 mm 0 min 0 W/m²
03:00 11.3 °C 8.9 °C 85 % 0 km/h (3 km/h) 0 mm0 mm 0 min 0 W/m²
02:54 11.4 °C 9 °C 85 % 0 km/h (3 km/h) 0 mm0 mm 0 min 0 W/m²
02:48 11.4 °C 9 °C 85 % 0 km/h (3 km/h) 0 mm0 mm 0 min 0 W/m²
02:42 11.5 °C 9.1 °C 85 % 0 km/h (3 km/h) 0 mm0 mm 0 min 0 W/m²
02:36 11.5 °C 9.1 °C 85 % 0 km/h (3 km/h) 0 mm0 mm 0 min 0 W/m²
02:30 11.5 °C 9.1 °C 85 % 0 km/h (2 km/h) 0 mm0 mm 0 min 0 W/m²
02:24 11.5 °C 9.1 °C 85 % 0 km/h (2 km/h) 0 mm0 mm 0 min 0 W/m²
02:18 11.6 °C 9.2 °C 85 % 0 km/h (3 km/h) 0 mm0 mm 0 min 0 W/m²
02:12 11.6 °C 9 °C 84 % 0 km/h (3 km/h) 0 mm0 mm 0 min 0 W/m²
02:06 11.7 °C 9.1 °C 84 % 0 km/h (3 km/h) 0 mm0 mm 0 min 0 W/m²
02:00 11.9 °C 9.1 °C 83 % 2 km/h (6 km/h) 0 mm0 mm 0 min 0 W/m²
01:54 12.1 °C 9.3 °C 83 % 2 km/h (6 km/h) 0 mm0 mm 0 min 0 W/m²
01:48 12.3 °C 9.5 °C 83 % 2 km/h (4 km/h) 0 mm0 mm 0 min 0 W/m²
01:42 12.3 °C 9.5 °C 83 % 2 km/h (4 km/h) 0 mm0 mm 0 min 0 W/m²
01:36 12.5 °C 9.5 °C 82 % 0 km/h (4 km/h) 0 mm0 mm 0 min 0 W/m²
01:30 12.6 °C 9.6 °C 82 % 0 km/h (3 km/h) 0 mm0 mm 0 min 0 W/m²
01:24 12.7 °C 9.9 °C 83 % 0 km/h (2 km/h) 0 mm0 mm 0 min 0 W/m²
01:18 12.8 °C 10 °C 83 % 0 km/h (0 km/h) 0 mm0 mm 0 min 0 W/m²
01:12 12.7 °C 9.9 °C 83 % 0 km/h (2 km/h) 0 mm0 mm 0 min 0 W/m²
01:06 12.6 °C 9.8 °C 83 % 0 km/h (0 km/h) 0 mm0 mm 0 min 0 W/m²
01:00 12.6 °C 10 °C 84 % 0 km/h (3 km/h) 0 mm0 mm 0 min 0 W/m²
00:54 12.5 °C 9.5 °C 82 % 0 km/h (3 km/h) 0 mm0 mm 0 min 0 W/m²
00:48 12.3 °C 9.7 °C 84 % 0 km/h (3 km/h) 0 mm0 mm 0 min 0 W/m²
00:42 12.2 °C 9.9 °C 86 % 0 km/h (2 km/h) 0 mm0 mm 0 min 0 W/m²
00:36 12 °C 9.7 °C 86 % 0 km/h (3 km/h) 0 mm0 mm 0 min 0 W/m²
00:30 11.8 °C 9.5 °C 86 % 0 km/h (3 km/h) 0 mm0 mm 0 min 0 W/m²
00:24 11.7 °C 9.4 °C 86 % 0 km/h (2 km/h) 0 mm0 mm 0 min 0 W/m²
00:18 11.6 °C 9.3 °C 86 % 0 km/h (2 km/h) 0 mm0 mm 0 min 0 W/m²
00:12 11.5 °C 9.2 °C 86 % 0 km/h (2 km/h) 0 mm0 mm 0 min 0 W/m²
00:06 11.5 °C 9.1 °C 85 % 0 km/h (2 km/h) 0 mm0 mm 0 min 0 W/m²
00:00 11.6 °C 9 °C 84 % 0 km/h (2 km/h) 0 mm0 mm 0 min 0 W/m²

Données via Météo-France

Relevés météo à Cilaos

Cette page rassemble les observations de la station de Cilaos : température, humidité, vent, précipitations et pression atmosphérique. Les graphiques facilitent le suivi de la journée, tandis que le tableau donne accès aux mesures horaires et infra-horaires disponibles.

Pour replacer ces mesures dans leur contexte, consultez la climatologie de Cilaos ainsi que ses normales et records. Retrouvez aussi la carte des observations météo en temps réel.